AIC2DM VOMM-VABB
Flight info
| Callsign | AIC2DM |
|---|---|
| Flight time | N/A |
| Altitude | 34000 |
| Route | DOLKI2A DOLKI Q8 BEDOL MOLGO2A |
| Aircraft | A21N/M-SDE2E3FGHIRWXY/LB1 |
Departure
| Time | N/A |
|---|---|
| Airport | Chennai International Airport (VOMM) |
Arrival
| Time | 2026-05-06 14:14 |
|---|---|
| Airport | Chhatrapati Shivaji Maharaj International Airport (VABB) |
| Time | Latitude | Longitude | Altitude | Speed | Heading |
|---|---|---|---|---|---|
| 2026-05-06 13:49 | 18.01435 | 73.97306 | 31464 ft | 483 kts | 335° |
| 2026-05-06 13:49 | 18.04374 | 73.95562 | 30838 ft | 480 kts | 327° |
| 2026-05-06 13:50 | 18.07054 | 73.93489 | 30220 ft | 477 kts | 321° |
| 2026-05-06 13:50 | 18.09567 | 73.91227 | 29599 ft | 473 kts | 318° |
| 2026-05-06 13:50 | 18.11957 | 73.88874 | 28978 ft | 469 kts | 316° |
| 2026-05-06 13:50 | 18.14252 | 73.86494 | 28360 ft | 465 kts | 315° |
| 2026-05-06 13:51 | 18.15523 | 73.85134 | 28009 ft | 464 kts | 314° |
| 2026-05-06 13:51 | 18.17306 | 73.82948 | 27483 ft | 461 kts | 311° |
| 2026-05-06 13:51 | 18.19419 | 73.80437 | 26942 ft | 455 kts | 313° |
| 2026-05-06 13:51 | 18.21573 | 73.78023 | 26433 ft | 449 kts | 314° |
| 2026-05-06 13:52 | 18.23743 | 73.75679 | 25930 ft | 444 kts | 315° |
| 2026-05-06 13:52 | 18.25912 | 73.73387 | 25429 ft | 439 kts | 316° |
| 2026-05-06 13:52 | 18.28070 | 73.71138 | 24927 ft | 434 kts | 316° |
| 2026-05-06 13:52 | 18.29962 | 73.69180 | 24486 ft | 431 kts | 316° |
| 2026-05-06 13:53 | 18.32065 | 73.67012 | 23994 ft | 426 kts | 316° |
| 2026-05-06 13:53 | 18.34164 | 73.64852 | 23639 ft | 419 kts | 316° |
| 2026-05-06 13:53 | 18.36246 | 73.62711 | 23088 ft | 416 kts | 316° |
| 2026-05-06 13:53 | 18.38316 | 73.60582 | 22537 ft | 414 kts | 316° |
| 2026-05-06 13:54 | 18.40369 | 73.58469 | 22007 ft | 408 kts | 316° |
| 2026-05-06 13:54 | 18.42351 | 73.56425 | 21508 ft | 395 kts | 316° |
| 2026-05-06 13:54 | 18.44307 | 73.54407 | 20925 ft | 390 kts | 316° |
| 2026-05-06 13:54 | 18.46231 | 73.52421 | 20368 ft | 384 kts | 316° |
| 2026-05-06 13:55 | 18.47740 | 73.50860 | 19895 ft | 377 kts | 316° |
| 2026-05-06 13:55 | 18.49606 | 73.48931 | 19210 ft | 374 kts | 316° |
| 2026-05-06 13:55 | 18.51463 | 73.47010 | 18510 ft | 373 kts | 315° |
| 2026-05-06 13:55 | 18.53310 | 73.45097 | 17810 ft | 371 kts | 315° |
| 2026-05-06 13:56 | 18.55148 | 73.43193 | 17111 ft | 369 kts | 315° |
| 2026-05-06 13:56 | 18.56973 | 73.41301 | 16410 ft | 366 kts | 315° |
| 2026-05-06 13:56 | 18.58784 | 73.39421 | 15708 ft | 362 kts | 315° |
| 2026-05-06 13:56 | 18.60552 | 73.37586 | 15069 ft | 357 kts | 315° |
| 2026-05-06 13:57 | 18.62303 | 73.35768 | 14670 ft | 347 kts | 315° |
| 2026-05-06 13:57 | 18.63977 | 73.34028 | 14176 ft | 336 kts | 315° |
| 2026-05-06 13:57 | 18.65610 | 73.32330 | 13674 ft | 324 kts | 315° |
| 2026-05-06 13:57 | 18.67196 | 73.30679 | 13169 ft | 314 kts | 316° |
| 2026-05-06 13:58 | 18.68726 | 73.29086 | 12666 ft | 305 kts | 316° |
| 2026-05-06 13:58 | 18.70219 | 73.27531 | 12163 ft | 297 kts | 316° |
| 2026-05-06 13:58 | 18.71667 | 73.26023 | 11745 ft | 288 kts | 316° |
| 2026-05-06 13:58 | 18.72700 | 73.24947 | 11451 ft | 282 kts | 316° |
| 2026-05-06 13:59 | 18.73739 | 73.23865 | 11149 ft | 276 kts | 315° |
| 2026-05-06 13:59 | 18.75083 | 73.22467 | 10640 ft | 274 kts | 315° |
| 2026-05-06 13:59 | 18.76442 | 73.21052 | 10088 ft | 273 kts | 315° |
| 2026-05-06 13:59 | 18.77794 | 73.19645 | 9535 ft | 271 kts | 315° |
| 2026-05-06 14:00 | 18.79138 | 73.18245 | 8984 ft | 271 kts | 315° |
| 2026-05-06 14:00 | 18.80475 | 73.16851 | 8433 ft | 270 kts | 314° |
| 2026-05-06 14:00 | 18.81809 | 73.15460 | 7866 ft | 270 kts | 314° |
| 2026-05-06 14:00 | 18.81915 | 73.15349 | 7821 ft | 270 kts | 314° |
| 2026-05-06 14:01 | 18.83197 | 73.14013 | 7271 ft | 271 kts | 314° |
| 2026-05-06 14:01 | 18.83519 | 73.13676 | 7132 ft | 272 kts | 314° |
| 2026-05-06 14:02 | 18.84288 | 73.12873 | 6803 ft | 272 kts | 315° |
| 2026-05-06 14:03 | 18.84339 | 73.12820 | 6782 ft | 272 kts | 315° |
| 2026-05-06 14:03 | 18.85704 | 73.11393 | 6199 ft | 273 kts | 315° |
| 2026-05-06 14:03 | 18.87500 | 73.09517 | 5435 ft | 274 kts | 316° |
| 2026-05-06 14:04 | 18.88689 | 73.08262 | 4927 ft | 274 kts | 315° |
| 2026-05-06 14:04 | 18.90094 | 73.07028 | 4344 ft | 273 kts | 330° |
| 2026-05-06 14:05 | 18.91875 | 73.06509 | 3773 ft | 268 kts | 357° |
| 2026-05-06 14:05 | 18.93699 | 73.06786 | 3226 ft | 264 kts | 15° |
| 2026-05-06 14:05 | 18.95441 | 73.07397 | 2649 ft | 262 kts | 23° |
| 2026-05-06 14:05 | 18.97471 | 73.08773 | 2019 ft | 255 kts | 35° |
| 2026-05-06 14:06 | 18.98419 | 73.09507 | 1889 ft | 244 kts | 34° |
| 2026-05-06 14:06 | 18.99758 | 73.10502 | 1813 ft | 227 kts | 34° |
| 2026-05-06 14:06 | 19.00823 | 73.11627 | 1801 ft | 212 kts | 44° |
| 2026-05-06 14:06 | 19.01814 | 73.12706 | 1808 ft | 196 kts | 39° |
| 2026-05-06 14:07 | 19.02878 | 73.13501 | 1790 ft | 179 kts | 25° |
| 2026-05-06 14:07 | 19.04021 | 73.13904 | 1811 ft | 172 kts | 13° |
| 2026-05-06 14:07 | 19.05203 | 73.14138 | 1792 ft | 170 kts | 2° |
| 2026-05-06 14:07 | 19.06366 | 73.14034 | 1801 ft | 167 kts | 347° |
| 2026-05-06 14:08 | 19.07425 | 73.13603 | 1799 ft | 166 kts | 332° |
| 2026-05-06 14:08 | 19.08355 | 73.12873 | 1809 ft | 165 kts | 318° |
| 2026-05-06 14:08 | 19.09069 | 73.11918 | 1811 ft | 166 kts | 304° |
| 2026-05-06 14:08 | 19.09540 | 73.10782 | 1799 ft | 168 kts | 290° |
| 2026-05-06 14:09 | 19.09524 | 73.09540 | 1819 ft | 171 kts | 265° |
| 2026-05-06 14:09 | 19.09303 | 73.08289 | 1816 ft | 174 kts | 264° |
| 2026-05-06 14:09 | 19.09178 | 73.07035 | 1867 ft | 167 kts | 268° |
| 2026-05-06 14:09 | 19.09111 | 73.05857 | 2137 ft | 153 kts | 270° |
| 2026-05-06 14:10 | 19.09069 | 73.04722 | 2632 ft | 163 kts | 270° |
| 2026-05-06 14:10 | 19.09043 | 73.03449 | 2508 ft | 179 kts | 271° |
| 2026-05-06 14:10 | 19.09023 | 73.02131 | 2418 ft | 175 kts | 272° |
| 2026-05-06 14:10 | 19.09007 | 73.00867 | 2396 ft | 169 kts | 272° |
| 2026-05-06 14:11 | 19.08993 | 72.99639 | 2398 ft | 167 kts | 272° |
| 2026-05-06 14:11 | 19.08979 | 72.98414 | 2316 ft | 172 kts | 272° |
| 2026-05-06 14:11 | 19.08970 | 72.97102 | 2036 ft | 179 kts | 273° |
| 2026-05-06 14:11 | 19.08949 | 72.95781 | 1777 ft | 180 kts | 272° |
| 2026-05-06 14:12 | 19.08946 | 72.94436 | 1483 ft | 179 kts | 272° |
| 2026-05-06 14:12 | 19.08939 | 72.93196 | 1204 ft | 165 kts | 272° |
| 2026-05-06 14:12 | 19.08917 | 72.92031 | 956 ft | 154 kts | 272° |
| 2026-05-06 14:12 | 19.08909 | 72.90888 | 739 ft | 153 kts | 272° |
| 2026-05-06 14:13 | 19.08910 | 72.89730 | 522 ft | 157 kts | 271° |
| 2026-05-06 14:13 | 19.08900 | 72.88569 | 295 ft | 159 kts | 269° |
| 2026-05-06 14:13 | 19.08886 | 72.87409 | 70 ft | 159 kts | 269° |
| 2026-05-06 14:13 | 19.08871 | 72.86331 | 49 ft | 132 kts | 269° |
| 2026-05-06 14:14 | 19.08862 | 72.85696 | 49 ft | 48 kts | 268° |
| 2026-05-06 14:14 | 19.08871 | 72.85427 | 49 ft | 33 kts | 288° |
| 2026-05-06 14:14 | 19.08966 | 72.85215 | 49 ft | 17 kts | 303° |
| 2026-05-06 14:14 | 19.09032 | 72.85127 | 49 ft | 12 kts | 343° |
| 2026-05-06 14:15 | 19.09100 | 72.85146 | 49 ft | 7 kts | 30° |
| 2026-05-06 14:15 | 19.09147 | 72.85154 | 49 ft | 6 kts | 0° |
| 2026-05-06 14:15 | 19.09154 | 72.85154 | 49 ft | 0 kts | 359° |